Time;durP1;ratioP1;P1;durP2;ratioP2;P2;SDS_P1;SDS_P2;PMS_P1;PMS_P2;Temp;Humidity;BMP_temperature;BMP_pressure;BME280_temperature;BME280_humidity;BME280_pressure;Samples;Min_cycle;Max_cycle;Signal;HPM_P1;HPM_P2
2022/09/25 00:00:56;;;;;;;0.82;0.82;;;;;;;;;;1861263;76;26282;-57
2022/09/25 00:03:24;;;;;;;0.90;0.90;;;;;;;;;;1860338;76;25326;-57
2022/09/25 00:05:51;;;;;;;1.00;1.00;;;;;;;;;;1861231;76;26240;-58
2022/09/25 00:08:19;;;;;;;1.00;1.00;;;;;;;;;;1852059;77;26312;-58
2022/09/25 00:10:47;;;;;;;0.80;0.80;;;;;;;;;;1853733;77;26224;-57
2022/09/25 00:13:19;;;;;;;0.90;0.90;;;;;;;;;;1854586;77;26280;-58
2022/09/25 00:15:47;;;;;;;0.90;0.90;;;;;;;;;;1854124;77;26804;-57
2022/09/25 00:18:15;;;;;;;0.80;0.80;;;;;;;;;;1856225;77;26211;-57
2022/09/25 00:20:43;;;;;;;1.00;1.00;;;;;;;;;;1858765;77;27334;-58
2022/09/25 00:23:11;;;;;;;1.00;1.00;;;;;;;;;;1857404;76;26277;-58
2022/09/25 00:25:38;;;;;;;0.90;0.90;;;;;;;;;;1860548;76;26269;-57
2022/09/25 00:28:06;;;;;;;0.90;0.90;;;;;;;;;;1849455;77;26716;-58
2022/09/25 00:30:33;;;;;;;1.70;1.12;;;;;;;;;;1840835;77;26275;-57
2022/09/25 00:33:00;;;;;;;0.90;0.90;;;;;;;;;;1841378;77;26261;-58
2022/09/25 00:35:27;;;;;;;0.93;0.93;;;;;;;;;;1851808;77;26253;-58
2022/09/25 00:37:55;;;;;;;1.00;1.00;;;;;;;;;;1845712;77;26326;-58
2022/09/25 00:40:23;;;;;;;0.80;0.80;;;;;;;;;;1853950;77;26247;-58
2022/09/25 00:42:50;;;;;;;0.88;0.88;;;;;;;;;;1857367;77;26269;-57
2022/09/25 00:45:20;;;;;;;0.80;0.80;;;;;;;;;;1850093;77;26236;-58
2022/09/25 00:47:55;;;;;;;1.00;1.00;;;;;;;;;;1856700;77;26242;-58
2022/09/25 00:50:24;;;;;;;0.90;0.90;;;;;;;;;;1850043;77;26365;-57
2022/09/25 00:52:53;;;;;;;0.90;0.90;;;;;;;;;;1851682;77;26239;-57
2022/09/25 00:55:22;;;;;;;0.90;0.90;;;;;;;;;;1852142;77;26259;-57
2022/09/25 00:57:51;;;;;;;1.10;1.10;;;;;;;;;;1851708;77;26215;-57
2022/09/25 01:00:19;;;;;;;1.00;1.00;;;;;;;;;;1854010;76;26294;-58
2022/09/25 01:02:48;;;;;;;0.90;0.90;;;;;;;;;;1855200;76;26243;-56
2022/09/25 01:05:17;;;;;;;0.93;0.93;;;;;;;;;;1854425;76;26273;-58
2022/09/25 01:07:46;;;;;;;0.90;0.90;;;;;;;;;;1852485;76;26828;-57
2022/09/25 01:10:14;;;;;;;0.98;0.98;;;;;;;;;;1854704;76;26335;-58
2022/09/25 01:12:43;;;;;;;0.78;0.78;;;;;;;;;;1851511;76;26220;-58
2022/09/25 01:15:11;;;;;;;0.90;0.90;;;;;;;;;;1843454;76;26742;-58
2022/09/25 01:17:46;;;;;;;0.88;0.88;;;;;;;;;;1868904;76;26231;-58
2022/09/25 01:20:24;;;;;;;1.00;1.00;;;;;;;;;;1866030;76;26645;-58
2022/09/25 01:22:53;;;;;;;0.80;0.80;;;;;;;;;;1875118;75;26660;-56
2022/09/25 01:25:24;;;;;;;0.90;0.90;;;;;;;;;;1871494;76;26274;-57
2022/09/25 01:28:05;;;;;;;0.90;0.90;;;;;;;;;;1853887;76;26268;-58
2022/09/25 01:30:35;;;;;;;1.00;1.00;;;;;;;;;;1850539;76;26332;-56
2022/09/25 01:33:10;;;;;;;0.98;0.90;;;;;;;;;;1845121;76;26934;-58
2022/09/25 01:35:55;;;;;;;0.90;0.90;;;;;;;;;;1860569;76;26256;-58
2022/09/25 01:38:27;;;;;;;0.88;0.88;;;;;;;;;;1841326;77;26543;-57
2022/09/25 01:40:59;;;;;;;0.82;0.82;;;;;;;;;;1844622;77;26245;-58
2022/09/25 01:43:40;;;;;;;0.80;0.80;;;;;;;;;;1850366;77;26740;-58
2022/09/25 01:46:18;;;;;;;0.80;0.80;;;;;;;;;;1844759;77;26334;-58
2022/09/25 01:48:47;;;;;;;0.90;0.90;;;;;;;;;;1851111;76;26245;-57
2022/09/25 01:51:31;;;;;;;0.80;0.80;;;;;;;;;;1846828;75;26237;-57
2022/09/25 01:53:59;;;;;;;0.82;0.82;;;;;;;;;;1843845;77;26241;-58
2022/09/25 01:56:31;;;;;;;0.90;0.90;;;;;;;;;;1845188;77;26248;-57
2022/09/25 01:58:59;;;;;;;0.80;0.80;;;;;;;;;;1845172;76;26351;-58
2022/09/25 02:01:28;;;;;;;0.80;0.80;;;;;;;;;;1830023;76;26351;-58
2022/09/25 02:03:56;;;;;;;0.72;0.72;;;;;;;;;;1859167;77;26241;-58
2022/09/25 02:06:24;;;;;;;0.82;0.82;;;;;;;;;;1857219;75;26301;-58
2022/09/25 02:08:56;;;;;;;0.80;0.80;;;;;;;;;;1882420;75;26729;-58
2022/09/25 02:11:25;;;;;;;0.80;0.80;;;;;;;;;;1856174;75;26737;-57
2022/09/25 02:13:57;;;;;;;0.70;0.70;;;;;;;;;;1853644;77;26738;-57
2022/09/25 02:16:29;;;;;;;0.80;0.80;;;;;;;;;;1853969;76;26260;-57
2022/09/25 02:22:02;;;;;;;0.80;0.80;;;;;;;;;;1856800;76;26674;-58
2022/09/25 02:24:31;;;;;;;0.70;0.70;;;;;;;;;;1842186;77;26253;-58
2022/09/25 02:26:58;;;;;;;0.70;0.70;;;;;;;;;;1860179;75;26347;-57
2022/09/25 02:29:25;;;;;;;0.85;0.85;;;;;;;;;;1853440;77;26251;-57
2022/09/25 02:31:59;;;;;;;0.82;0.82;;;;;;;;;;1853619;77;26320;-57
2022/09/25 02:34:27;;;;;;;0.90;0.90;;;;;;;;;;1860248;77;26748;-58
2022/09/25 02:36:55;;;;;;;0.70;0.70;;;;;;;;;;1839129;76;26241;-58
2022/09/25 02:39:24;;;;;;;0.70;0.70;;;;;;;;;;1852841;77;26855;-58
2022/09/25 02:42:09;;;;;;;0.70;0.70;;;;;;;;;;1853645;77;26259;-58
2022/09/25 02:44:54;;;;;;;0.72;0.72;;;;;;;;;;1860149;77;26270;-56
2022/09/25 02:47:23;;;;;;;0.70;0.70;;;;;;;;;;1859382;77;26302;-58
2022/09/25 02:49:52;;;;;;;0.70;0.70;;;;;;;;;;1855606;76;26193;-57
2022/09/25 02:52:21;;;;;;;0.90;0.90;;;;;;;;;;1858390;75;26270;-58
2022/09/25 02:55:05;;;;;;;0.70;0.70;;;;;;;;;;1853850;76;26196;-57
2022/09/25 02:57:43;;;;;;;1.45;0.78;;;;;;;;;;1853833;77;26211;-58
2022/09/25 03:00:12;;;;;;;0.80;0.80;;;;;;;;;;1841968;77;26239;-56
2022/09/25 03:02:41;;;;;;;0.75;0.75;;;;;;;;;;1853796;76;26280;-55
2022/09/25 03:05:09;;;;;;;0.70;0.70;;;;;;;;;;1850612;77;26344;-58
2022/09/25 03:10:07;;;;;;;0.90;0.90;;;;;;;;;;1810808;77;27468;-57
2022/09/25 03:12:37;;;;;;;0.80;0.80;;;;;;;;;;1851081;77;26557;-58
2022/09/25 03:15:05;;;;;;;0.72;0.72;;;;;;;;;;1850926;77;26254;-58
2022/09/25 03:17:33;;;;;;;0.80;0.80;;;;;;;;;;1871495;75;26182;-57
2022/09/25 03:20:01;;;;;;;0.90;0.90;;;;;;;;;;1867979;75;26235;-58
2022/09/25 03:22:28;;;;;;;1.02;1.02;;;;;;;;;;1862089;75;26308;-58
2022/09/25 03:24:55;;;;;;;0.90;0.90;;;;;;;;;;1851157;77;26244;-58
2022/09/25 03:27:24;;;;;;;0.82;0.82;;;;;;;;;;1858298;77;26191;-58
2022/09/25 03:29:51;;;;;;;0.85;0.85;;;;;;;;;;1861354;77;26867;-58
2022/09/25 03:32:18;;;;;;;0.90;0.90;;;;;;;;;;1859541;77;26788;-58
2022/09/25 03:34:46;;;;;;;0.80;0.80;;;;;;;;;;1858820;77;27748;-57
2022/09/25 03:37:13;;;;;;;0.80;0.80;;;;;;;;;;1861936;75;26248;-57
2022/09/25 03:39:40;;;;;;;0.70;0.70;;;;;;;;;;1854660;77;26242;-55
2022/09/25 03:42:08;;;;;;;0.80;0.80;;;;;;;;;;1861595;77;26315;-58
2022/09/25 03:44:35;;;;;;;0.80;0.80;;;;;;;;;;1863238;77;26817;-58
2022/09/25 03:47:02;;;;;;;0.70;0.70;;;;;;;;;;1864011;77;26325;-58
2022/09/25 03:49:29;;;;;;;0.90;0.90;;;;;;;;;;1864271;75;26230;-56
2022/09/25 03:51:58;;;;;;;0.70;0.70;;;;;;;;;;1866541;77;26322;-58
2022/09/25 03:54:26;;;;;;;0.80;0.80;;;;;;;;;;1867605;77;26312;-58
2022/09/25 03:56:53;;;;;;;0.85;0.85;;;;;;;;;;1867944;77;26224;-58
2022/09/25 03:59:20;;;;;;;0.90;0.90;;;;;;;;;;1867396;77;26250;-58
2022/09/25 04:01:47;;;;;;;0.78;0.78;;;;;;;;;;1842699;76;26299;-58
2022/09/25 04:04:15;;;;;;;0.88;0.88;;;;;;;;;;1816827;78;26202;-56
2022/09/25 04:06:42;;;;;;;0.70;0.70;;;;;;;;;;1787924;78;26291;-58
2022/09/25 04:09:09;;;;;;;0.80;0.80;;;;;;;;;;1799821;78;26275;-58
2022/09/25 04:11:37;;;;;;;0.70;0.70;;;;;;;;;;1790886;78;26223;-57
2022/09/25 04:14:05;;;;;;;0.82;0.82;;;;;;;;;;1788896;78;26278;-58
2022/09/25 04:16:32;;;;;;;0.80;0.80;;;;;;;;;;1791100;78;26286;-57
2022/09/25 04:18:59;;;;;;;0.80;0.80;;;;;;;;;;1824230;78;26243;-58
2022/09/25 04:21:27;;;;;;;0.80;0.80;;;;;;;;;;1833095;77;26259;-58
2022/09/25 04:26:40;;;;;;;0.78;0.78;;;;;;;;;;1832305;77;26425;-56
2022/09/25 04:29:07;;;;;;;0.60;0.60;;;;;;;;;;1831630;77;26262;-58
2022/09/25 04:31:35;;;;;;;0.90;0.90;;;;;;;;;;1833442;77;26278;-57
2022/09/25 04:34:02;;;;;;;0.70;0.70;;;;;;;;;;1823247;77;26321;-58
2022/09/25 04:36:30;;;;;;;1.45;0.70;;;;;;;;;;1834146;78;25757;-58
2022/09/25 04:38:57;;;;;;;0.85;0.85;;;;;;;;;;1832853;78;27505;-57
2022/09/25 04:41:24;;;;;;;0.70;0.70;;;;;;;;;;1832051;78;26672;-58
2022/09/25 04:43:51;;;;;;;0.78;0.78;;;;;;;;;;1831796;78;27178;-57
2022/09/25 04:46:19;;;;;;;0.80;0.80;;;;;;;;;;1825696;78;26730;-57
2022/09/25 04:48:46;;;;;;;0.70;0.70;;;;;;;;;;1810878;78;26336;-58
2022/09/25 04:51:13;;;;;;;0.85;0.85;;;;;;;;;;1831857;78;26352;-58
2022/09/25 04:53:41;;;;;;;0.78;0.78;;;;;;;;;;1832211;78;26652;-58
2022/09/25 04:56:13;;;;;;;0.80;0.80;;;;;;;;;;1833658;77;26259;-58
2022/09/25 04:58:38;;;;;;;0.62;0.62;;;;;;;;;;1831160;77;26292;-57
2022/09/25 05:01:07;;;;;;;0.70;0.70;;;;;;;;;;1813361;77;26418;-58
2022/09/25 05:03:35;;;;;;;0.75;0.75;;;;;;;;;;1838248;77;27449;-57
2022/09/25 05:06:02;;;;;;;0.70;0.70;;;;;;;;;;1839537;76;26280;-58
2022/09/25 05:08:30;;;;;;;0.80;0.80;;;;;;;;;;1835366;77;26204;-57
2022/09/25 05:10:57;;;;;;;0.90;0.90;;;;;;;;;;1838202;77;26723;-58
2022/09/25 05:13:24;;;;;;;0.70;0.70;;;;;;;;;;1833287;77;26263;-58
2022/09/25 05:15:54;;;;;;;0.80;0.80;;;;;;;;;;1832909;77;26290;-57
2022/09/25 05:18:22;;;;;;;2.47;0.80;;;;;;;;;;1857469;76;27326;-58
2022/09/25 05:20:52;;;;;;;0.80;0.80;;;;;;;;;;1837478;77;26212;-55
2022/09/25 05:23:20;;;;;;;0.90;0.90;;;;;;;;;;1848312;77;26252;-58
2022/09/25 05:25:56;;;;;;;0.70;0.70;;;;;;;;;;1840961;77;26207;-58
2022/09/25 05:28:23;;;;;;;0.90;0.90;;;;;;;;;;1847539;77;26315;-58
2022/09/25 05:30:51;;;;;;;0.72;0.72;;;;;;;;;;1847807;76;26296;-58
2022/09/25 05:33:18;;;;;;;0.98;0.88;;;;;;;;;;1855880;76;26291;-57
2022/09/25 05:35:47;;;;;;;0.78;0.78;;;;;;;;;;1835898;77;26208;-57
2022/09/25 05:38:14;;;;;;;0.80;0.80;;;;;;;;;;1837918;77;26278;-58
2022/09/25 05:40:42;;;;;;;0.90;0.90;;;;;;;;;;1836167;77;26177;-57
2022/09/25 05:43:11;;;;;;;0.80;0.80;;;;;;;;;;1834518;77;26739;-58
2022/09/25 05:45:38;;;;;;;1.25;0.82;;;;;;;;;;1876484;76;26260;-58
2022/09/25 05:48:08;;;;;;;0.98;0.90;;;;;;;;;;1848657;77;26796;-57
2022/09/25 05:50:36;;;;;;;1.30;0.80;;;;;;;;;;1835933;77;26275;-58
2022/09/25 05:53:04;;;;;;;0.78;0.78;;;;;;;;;;1834653;77;26251;-58
2022/09/25 05:55:31;;;;;;;0.70;0.70;;;;;;;;;;1842301;77;26247;-58
2022/09/25 05:58:00;;;;;;;0.70;0.70;;;;;;;;;;1845690;76;26250;-57
2022/09/25 06:00:27;;;;;;;0.90;0.90;;;;;;;;;;1855773;76;26267;-58
2022/09/25 06:02:54;;;;;;;1.10;0.70;;;;;;;;;;1847186;76;26715;-58
2022/09/25 06:05:22;;;;;;;1.67;0.93;;;;;;;;;;1860179;76;26788;-58
2022/09/25 06:07:54;;;;;;;0.90;0.90;;;;;;;;;;1860976;76;26184;-58
2022/09/25 06:10:21;;;;;;;1.20;0.80;;;;;;;;;;1853146;76;27257;-58
2022/09/25 06:12:48;;;;;;;1.45;0.80;;;;;;;;;;1880996;75;26180;-57
2022/09/25 06:15:16;;;;;;;0.72;0.72;;;;;;;;;;1855679;77;26259;-58
2022/09/25 06:17:43;;;;;;;0.90;0.90;;;;;;;;;;1853179;77;25655;-57
2022/09/25 06:20:10;;;;;;;0.62;0.62;;;;;;;;;;1854682;76;26686;-58
2022/09/25 06:22:38;;;;;;;0.70;0.70;;;;;;;;;;1854995;76;26723;-58
2022/09/25 06:25:06;;;;;;;0.98;0.80;;;;;;;;;;1856538;76;26254;-58
2022/09/25 06:27:33;;;;;;;0.98;0.82;;;;;;;;;;1859440;75;26335;-58
2022/09/25 06:30:00;;;;;;;1.67;0.70;;;;;;;;;;1855094;76;26823;-57
2022/09/25 06:32:28;;;;;;;0.70;0.70;;;;;;;;;;1856320;76;26283;-58
2022/09/25 06:34:55;;;;;;;1.17;0.90;;;;;;;;;;1854881;76;26336;-58
2022/09/25 06:37:22;;;;;;;0.90;0.90;;;;;;;;;;1854107;76;26317;-58
2022/09/25 06:39:49;;;;;;;0.85;0.80;;;;;;;;;;1855175;76;26332;-58
2022/09/25 06:42:17;;;;;;;1.82;0.90;;;;;;;;;;1856381;76;26362;-58
2022/09/25 06:44:44;;;;;;;1.35;1.10;;;;;;;;;;1869225;75;26312;-57
2022/09/25 06:47:12;;;;;;;1.57;1.47;;;;;;;;;;1858757;76;26231;-58
2022/09/25 06:49:39;;;;;;;5.45;2.00;;;;;;;;;;1855086;76;26288;-57
2022/09/25 06:52:07;;;;;;;2.35;1.75;;;;;;;;;;1860042;76;26262;-58
2022/09/25 06:54:34;;;;;;;3.52;1.65;;;;;;;;;;1873052;76;26674;-57
2022/09/25 06:57:01;;;;;;;2.10;1.90;;;;;;;;;;1863494;75;27424;-57
2022/09/25 06:59:29;;;;;;;2.22;1.80;;;;;;;;;;1863250;75;26813;-57
2022/09/25 07:03:43;;;;;;;5.28;1.80;;;;;;;;;;1857038;76;26703;-58
2022/09/25 07:04:25;;;;;;;3.87;2.00;;;;;;;;;;1850371;75;26408;-58
2022/09/25 07:06:55;;;;;;;3.00;1.90;;;;;;;;;;1874795;75;26365;-56
2022/09/25 07:09:21;;;;;;;2.67;1.80;;;;;;;;;;1855022;76;26796;-59
2022/09/25 07:11:50;;;;;;;4.00;1.98;;;;;;;;;;1872543;75;26324;-58
2022/09/25 07:14:18;;;;;;;3.62;2.08;;;;;;;;;;1851053;77;26776;-57
2022/09/25 07:16:46;;;;;;;3.52;2.08;;;;;;;;;;1850393;77;26330;-58
2022/09/25 07:19:13;;;;;;;1.98;1.80;;;;;;;;;;1855803;77;26273;-58
2022/09/25 07:21:40;;;;;;;4.90;1.80;;;;;;;;;;1857069;75;26270;-61
2022/09/25 07:24:08;;;;;;;4.15;1.42;;;;;;;;;;1860848;75;25789;-62
2022/09/25 07:26:35;;;;;;;6.80;1.72;;;;;;;;;;1869101;75;26263;-62
2022/09/25 07:29:05;;;;;;;4.05;1.50;;;;;;;;;;1870276;75;26262;-62
2022/09/25 07:31:33;;;;;;;5.35;1.80;;;;;;;;;;1866831;75;26349;-59
2022/09/25 07:34:04;;;;;;;2.00;1.65;;;;;;;;;;1861909;75;26242;-51
2022/09/25 07:36:29;;;;;;;1.98;1.60;;;;;;;;;;1849722;77;26873;-51
2022/09/25 07:38:56;;;;;;;5.35;1.60;;;;;;;;;;1853583;76;26780;-49
2022/09/25 07:41:24;;;;;;;1.92;1.42;;;;;;;;;;1858515;75;27462;-52
2022/09/25 07:43:52;;;;;;;6.05;1.45;;;;;;;;;;1852831;75;26761;-53
2022/09/25 07:46:19;;;;;;;3.45;1.42;;;;;;;;;;1855623;75;26715;-51
2022/09/25 07:48:48;;;;;;;2.17;1.45;;;;;;;;;;1851878;77;26647;-50
2022/09/25 07:51:16;;;;;;;2.62;1.55;;;;;;;;;;1848596;77;26719;-52
2022/09/25 07:53:44;;;;;;;3.83;1.45;;;;;;;;;;1854378;77;26672;-52
2022/09/25 07:56:12;;;;;;;3.00;1.60;;;;;;;;;;1858100;77;26269;-53
2022/09/25 07:58:39;;;;;;;3.00;1.50;;;;;;;;;;1858660;77;26359;-49
2022/09/25 08:01:08;;;;;;;1.98;1.37;;;;;;;;;;1859563;77;26192;-50
2022/09/25 08:03:35;;;;;;;2.80;1.50;;;;;;;;;;1848654;76;26350;-53
2022/09/25 08:06:04;;;;;;;1.40;1.40;;;;;;;;;;1814111;78;26317;-48
2022/09/25 08:08:33;;;;;;;2.45;1.30;;;;;;;;;;1813591;77;26220;-52
2022/09/25 08:11:01;;;;;;;1.60;1.50;;;;;;;;;;1797356;78;26368;-54
2022/09/25 08:13:31;;;;;;;1.37;1.37;;;;;;;;;;1790513;78;26310;-52
2022/09/25 08:15:59;;;;;;;1.80;1.40;;;;;;;;;;1799173;78;26856;-52
2022/09/25 08:18:26;;;;;;;1.67;1.40;;;;;;;;;;1822257;78;26200;-55
2022/09/25 08:20:53;;;;;;;1.50;1.40;;;;;;;;;;1815257;77;26251;-51
2022/09/25 08:23:20;;;;;;;1.32;1.32;;;;;;;;;;1821283;77;26275;-53
2022/09/25 08:25:48;;;;;;;1.98;1.40;;;;;;;;;;1798061;78;26243;-52
2022/09/25 08:28:16;;;;;;;10.85;1.62;;;;;;;;;;1827540;78;26325;-50
2022/09/25 08:30:44;;;;;;;5.42;1.65;;;;;;;;;;1817972;78;26288;-50
2022/09/25 08:33:11;;;;;;;4.03;1.50;;;;;;;;;;1816821;78;26200;-53
2022/09/25 08:35:40;;;;;;;6.80;1.50;;;;;;;;;;1810004;78;26770;-49
2022/09/25 08:38:07;;;;;;;8.53;1.50;;;;;;;;;;1817118;78;26771;-50
2022/09/25 08:40:36;;;;;;;14.75;1.67;;;;;;;;;;1822478;77;26279;-50
2022/09/25 08:43:04;;;;;;;3.12;1.50;;;;;;;;;;1830000;77;26231;-51
2022/09/25 08:51:08;;;;;;;2.42;1.37;;;;;;;;;;1799279;78;27501;-51
2022/09/25 08:53:37;;;;;;;2.00;1.35;;;;;;;;;;1800070;78;26339;-50
2022/09/25 08:56:14;;;;;;;2.20;1.45;;;;;;;;;;1794251;78;26244;-51
2022/09/25 08:58:42;;;;;;;4.58;1.30;;;;;;;;;;1792221;78;26283;-49
2022/09/25 09:01:12;;;;;;;2.65;1.30;;;;;;;;;;1810805;78;26732;-49
2022/09/25 09:03:43;;;;;;;2.90;1.50;;;;;;;;;;1830265;77;26557;-50
2022/09/25 09:06:12;;;;;;;8.83;1.67;;;;;;;;;;1851240;75;27390;-62
2022/09/25 09:08:41;;;;;;;8.38;1.80;;;;;;;;;;1856581;76;26314;-61
2022/09/25 09:11:13;;;;;;;16.02;2.33;;;;;;;;;;1853692;77;26745;-61
2022/09/25 09:13:44;;;;;;;7.75;1.57;;;;;;;;;;1855575;76;26288;-64
2022/09/25 09:16:16;;;;;;;7.97;1.98;;;;;;;;;;1853704;76;26283;-61
2022/09/25 09:18:44;;;;;;;4.85;1.65;;;;;;;;;;1863903;75;26766;-61
2022/09/25 09:21:28;;;;;;;10.00;1.98;;;;;;;;;;1849942;77;26247;-62
2022/09/25 09:23:57;;;;;;;5.60;1.60;;;;;;;;;;1850219;77;26239;-62
2022/09/25 09:26:26;;;;;;;3.45;1.62;;;;;;;;;;1841643;77;26279;-60
2022/09/25 09:28:57;;;;;;;5.17;1.50;;;;;;;;;;1829965;77;26248;-61
2022/09/25 09:31:38;;;;;;;5.45;1.47;;;;;;;;;;1832794;77;26291;-60
2022/09/25 09:34:07;;;;;;;12.03;1.60;;;;;;;;;;1835584;77;26355;-60
2022/09/25 09:36:42;;;;;;;2.22;1.50;;;;;;;;;;1801509;77;26260;-60
2022/09/25 09:39:17;;;;;;;3.40;1.32;;;;;;;;;;1838564;75;26309;-60
2022/09/25 09:41:45;;;;;;;6.95;1.70;;;;;;;;;;1832166;77;26259;-61
2022/09/25 09:44:29;;;;;;;3.22;1.30;;;;;;;;;;1832446;77;26274;-61
2022/09/25 09:47:16;;;;;;;3.20;1.50;;;;;;;;;;1836262;76;26948;-59
2022/09/25 09:49:49;;;;;;;4.37;1.70;;;;;;;;;;1840204;77;26764;-54
2022/09/25 09:52:24;;;;;;;5.58;1.52;;;;;;;;;;1857648;76;26285;-57
2022/09/25 09:54:52;;;;;;;4.30;1.50;;;;;;;;;;1846029;77;26259;-57
2022/09/25 09:57:24;;;;;;;3.92;1.77;;;;;;;;;;1840522;76;26770;-57
2022/09/25 09:59:53;;;;;;;3.77;1.52;;;;;;;;;;1834635;77;26727;-63
2022/09/25 10:02:28;;;;;;;5.42;1.20;;;;;;;;;;1832473;76;26322;-55
2022/09/25 10:04:57;;;;;;;3.00;1.32;;;;;;;;;;1854768;76;26285;-61
2022/09/25 10:07:27;;;;;;;4.55;1.50;;;;;;;;;;1854870;77;26257;-63
2022/09/25 10:09:55;;;;;;;2.05;1.30;;;;;;;;;;1854830;76;26269;-60
2022/09/25 10:12:31;;;;;;;6.05;1.30;;;;;;;;;;1855438;77;26260;-58
2022/09/25 10:15:00;;;;;;;4.33;1.60;;;;;;;;;;1852179;77;26732;-54
2022/09/25 10:17:29;;;;;;;1.30;1.20;;;;;;;;;;1857319;77;26244;-60
2022/09/25 10:20:01;;;;;;;4.25;1.30;;;;;;;;;;1841943;77;26701;-59
2022/09/25 10:22:39;;;;;;;3.40;1.30;;;;;;;;;;1837193;77;26228;-60
2022/09/25 10:25:06;;;;;;;4.72;1.35;;;;;;;;;;1844359;77;26240;-60
2022/09/25 10:27:35;;;;;;;1.47;1.32;;;;;;;;;;1838249;77;26259;-61
2022/09/25 10:30:10;;;;;;;2.70;1.27;;;;;;;;;;1843840;77;26269;-59
2022/09/25 10:32:48;;;;;;;2.25;1.42;;;;;;;;;;1838273;77;26278;-59
2022/09/25 10:35:17;;;;;;;3.30;1.27;;;;;;;;;;1866759;76;26295;-55
2022/09/25 10:37:44;;;;;;;1.57;1.20;;;;;;;;;;1856125;76;26262;-56
2022/09/25 10:40:22;;;;;;;0.90;0.90;;;;;;;;;;1846264;77;26274;-58
2022/09/25 10:42:51;;;;;;;2.58;0.90;;;;;;;;;;1836056;77;27505;-57
2022/09/25 10:45:32;;;;;;;1.70;1.10;;;;;;;;;;1842179;77;26271;-57
2022/09/25 10:50:45;;;;;;;3.52;1.30;;;;;;;;;;1848987;77;26276;-59
2022/09/25 10:53:28;;;;;;;1.42;1.20;;;;;;;;;;1849762;76;26917;-59
2022/09/25 10:56:03;;;;;;;1.45;1.35;;;;;;;;;;1847997;76;26283;-59
2022/09/25 10:58:33;;;;;;;2.58;1.10;;;;;;;;;;1839904;77;26249;-59
2022/09/25 11:01:01;;;;;;;2.25;1.20;;;;;;;;;;1856370;76;26704;-58
2022/09/25 11:03:31;;;;;;;3.20;1.40;;;;;;;;;;1854910;77;26337;-58
2022/09/25 11:06:00;;;;;;;1.27;1.27;;;;;;;;;;1862014;76;26369;-59
2022/09/25 11:08:31;;;;;;;2.52;1.25;;;;;;;;;;1858302;76;27586;-59
2022/09/25 11:11:00;;;;;;;1.27;1.20;;;;;;;;;;1857645;77;26337;-58
2022/09/25 11:13:29;;;;;;;1.65;1.17;;;;;;;;;;1850509;77;26281;-58
2022/09/25 11:15:58;;;;;;;1.10;1.10;;;;;;;;;;1848127;77;26832;-59
2022/09/25 11:18:39;;;;;;;1.20;1.20;;;;;;;;;;1857715;77;26727;-59
2022/09/25 11:21:07;;;;;;;1.47;1.40;;;;;;;;;;1848703;77;26592;-59
2022/09/25 11:23:36;;;;;;;1.30;1.30;;;;;;;;;;1850290;76;26235;-59
2022/09/25 11:26:05;;;;;;;1.30;1.20;;;;;;;;;;1850053;77;26263;-58
2022/09/25 11:28:51;;;;;;;1.65;1.50;;;;;;;;;;1850187;77;26317;-58
2022/09/25 11:31:22;;;;;;;1.30;1.30;;;;;;;;;;1850106;77;26278;-59
2022/09/25 11:33:51;;;;;;;1.45;1.30;;;;;;;;;;1852251;75;26719;-59
2022/09/25 11:36:20;;;;;;;2.98;1.30;;;;;;;;;;1863676;76;26684;-59
2022/09/25 11:41:39;;;;;;;1.20;1.20;;;;;;;;;;1850395;77;26286;-59
2022/09/25 11:44:08;;;;;;;1.20;1.20;;;;;;;;;;1855863;77;26319;-59
2022/09/25 11:46:40;;;;;;;1.20;1.20;;;;;;;;;;1867939;76;26273;-59
2022/09/25 11:49:14;;;;;;;1.20;1.20;;;;;;;;;;1859589;75;26700;-59
2022/09/25 11:51:49;;;;;;;1.50;1.40;;;;;;;;;;1867740;75;26284;-59
2022/09/25 11:54:24;;;;;;;3.90;1.20;;;;;;;;;;1864620;77;26241;-59
2022/09/25 11:56:52;;;;;;;1.10;1.10;;;;;;;;;;1862827;76;26281;-58
2022/09/25 11:59:21;;;;;;;1.10;1.10;;;;;;;;;;1869382;76;26325;-59
2022/09/25 12:01:50;;;;;;;1.20;1.20;;;;;;;;;;1846652;76;26208;-58
2022/09/25 12:04:26;;;;;;;1.20;1.20;;;;;;;;;;1867543;76;26322;-60
2022/09/25 12:06:58;;;;;;;1.05;1.05;;;;;;;;;;1856853;75;26316;-59
2022/09/25 12:09:30;;;;;;;1.12;1.12;;;;;;;;;;1851267;77;27386;-59
2022/09/25 12:12:07;;;;;;;1.10;1.10;;;;;;;;;;1844988;77;26263;-59
2022/09/25 12:14:36;;;;;;;1.20;1.20;;;;;;;;;;1843821;76;27048;-59
2022/09/25 12:17:05;;;;;;;1.05;1.05;;;;;;;;;;1843789;76;26715;-59
2022/09/25 12:19:37;;;;;;;1.37;1.00;;;;;;;;;;1843548;77;26738;-59
2022/09/25 12:22:08;;;;;;;1.20;1.20;;;;;;;;;;1855696;75;26792;-59
2022/09/25 12:24:38;;;;;;;1.00;1.00;;;;;;;;;;1873071;75;26250;-60
2022/09/25 12:27:07;;;;;;;1.05;1.05;;;;;;;;;;1876138;75;26302;-58
2022/09/25 12:29:39;;;;;;;1.10;1.10;;;;;;;;;;1843659;77;26258;-59
2022/09/25 12:32:12;;;;;;;1.20;1.20;;;;;;;;;;1859007;75;26379;-58
2022/09/25 12:34:41;;;;;;;1.05;1.05;;;;;;;;;;1850309;76;26305;-59
2022/09/25 12:37:21;;;;;;;1.10;1.10;;;;;;;;;;1868979;75;26277;-60
2022/09/25 12:39:49;;;;;;;1.98;1.30;;;;;;;;;;1843641;76;26319;-59
2022/09/25 12:42:22;;;;;;;3.50;1.47;;;;;;;;;;1843368;76;26653;-58
2022/09/25 12:44:53;;;;;;;3.22;1.40;;;;;;;;;;1854952;76;26700;-59
2022/09/25 12:47:22;;;;;;;1.98;1.30;;;;;;;;;;1872600;76;26282;-58
2022/09/25 12:49:51;;;;;;;1.85;1.45;;;;;;;;;;1876429;76;26188;-59
2022/09/25 12:52:20;;;;;;;1.42;1.30;;;;;;;;;;1876076;75;26248;-59
2022/09/25 12:55:09;;;;;;;1.60;1.50;;;;;;;;;;1870448;76;26204;-58
2022/09/25 12:57:40;;;;;;;5.20;1.40;;;;;;;;;;1863705;75;26741;-59
2022/09/25 13:00:19;;;;;;;3.60;1.37;;;;;;;;;;1881011;74;26234;-59
2022/09/25 13:02:47;;;;;;;1.30;1.30;;;;;;;;;;1864277;75;26309;-60
2022/09/25 13:05:35;;;;;;;1.32;1.20;;;;;;;;;;1847832;75;26545;-60
2022/09/25 13:08:08;;;;;;;1.47;1.32;;;;;;;;;;1852479;76;26259;-60
2022/09/25 13:10:40;;;;;;;3.35;1.40;;;;;;;;;;1850705;76;26293;-58
2022/09/25 13:13:11;;;;;;;2.95;1.60;;;;;;;;;;1850000;77;26313;-59
2022/09/25 13:15:40;;;;;;;3.12;1.30;;;;;;;;;;1844353;76;26262;-60
2022/09/25 13:18:09;;;;;;;1.37;1.30;;;;;;;;;;1860891;75;26352;-59
2022/09/25 13:20:40;;;;;;;2.15;1.42;;;;;;;;;;1849287;75;26240;-60
2022/09/25 13:23:16;;;;;;;1.32;1.22;;;;;;;;;;1856376;75;26205;-59
2022/09/25 13:25:42;;;;;;;1.30;1.20;;;;;;;;;;1856858;77;26248;-59
2022/09/25 13:28:11;;;;;;;1.10;1.10;;;;;;;;;;1862322;77;26344;-59
2022/09/25 13:30:38;;;;;;;1.10;1.10;;;;;;;;;;1858893;76;26230;-59
2022/09/25 13:33:07;;;;;;;1.37;1.30;;;;;;;;;;1858701;77;26806;-59
2022/09/25 13:35:35;;;;;;;1.12;1.12;;;;;;;;;;1857908;76;26282;-60
2022/09/25 13:40:41;;;;;;;1.40;1.30;;;;;;;;;;1846068;77;26262;-59
2022/09/25 13:40:47;;;;;;;1.27;1.10;;;;;;;;;;1847455;76;26243;-59
2022/09/25 13:43:25;;;;;;;2.62;1.30;;;;;;;;;;1852698;75;26574;-59
2022/09/25 13:46:12;;;;;;;1.20;1.10;;;;;;;;;;1851365;76;26266;-59
2022/09/25 13:48:40;;;;;;;1.27;1.17;;;;;;;;;;1849113;77;26704;-59
2022/09/25 13:51:18;;;;;;;1.10;1.10;;;;;;;;;;1848783;75;26715;-59
2022/09/25 13:53:58;;;;;;;1.17;1.05;;;;;;;;;;1857242;75;26319;-60
2022/09/25 13:56:26;;;;;;;1.10;1.10;;;;;;;;;;1864927;75;26367;-59
2022/09/25 13:59:06;;;;;;;1.35;1.10;;;;;;;;;;1864966;75;26333;-60
2022/09/25 14:01:34;;;;;;;1.10;1.10;;;;;;;;;;1860034;75;26799;-60
2022/09/25 14:04:03;;;;;;;3.50;0.95;;;;;;;;;;1865350;77;26301;-59
2022/09/25 14:06:31;;;;;;;1.27;1.17;;;;;;;;;;1857378;76;26290;-59
2022/09/25 14:09:00;;;;;;;1.12;1.12;;;;;;;;;;1849417;76;26276;-60
2022/09/25 14:11:30;;;;;;;1.62;1.20;;;;;;;;;;1833405;78;26198;-61
2022/09/25 14:14:00;;;;;;;1.10;1.10;;;;;;;;;;1824086;77;26369;-60
2022/09/25 14:16:31;;;;;;;1.20;1.10;;;;;;;;;;1819282;78;26823;-59
2022/09/25 14:19:00;;;;;;;1.20;1.20;;;;;;;;;;1842425;76;27325;-59
2022/09/25 14:21:29;;;;;;;1.10;1.00;;;;;;;;;;1850574;76;26275;-60
2022/09/25 14:23:57;;;;;;;0.98;0.98;;;;;;;;;;1843144;76;26326;-59
2022/09/25 14:26:26;;;;;;;0.90;0.90;;;;;;;;;;1858550;76;26306;-59
2022/09/25 14:28:54;;;;;;;1.00;1.00;;;;;;;;;;1858544;76;26708;-60
2022/09/25 14:31:31;;;;;;;1.02;1.00;;;;;;;;;;1859769;76;26302;-59
2022/09/25 14:34:03;;;;;;;1.07;1.07;;;;;;;;;;1858965;76;26239;-59
2022/09/25 14:36:38;;;;;;;2.45;0.90;;;;;;;;;;1864919;76;26943;-59
2022/09/25 14:39:06;;;;;;;1.00;1.00;;;;;;;;;;1860056;75;27344;-59
2022/09/25 14:41:38;;;;;;;1.10;1.10;;;;;;;;;;1833904;76;26263;-59
2022/09/25 14:44:24;;;;;;;1.90;1.02;;;;;;;;;;1840781;76;26339;-60
2022/09/25 14:46:52;;;;;;;1.40;1.00;;;;;;;;;;1847044;76;26377;-60
2022/09/25 14:49:24;;;;;;;0.90;0.90;;;;;;;;;;1859170;76;26671;-58
2022/09/25 14:51:53;;;;;;;1.00;1.00;;;;;;;;;;1864533;76;26251;-58
2022/09/25 14:54:22;;;;;;;1.00;1.00;;;;;;;;;;1840456;76;26296;-60
2022/09/25 14:56:50;;;;;;;1.15;0.90;;;;;;;;;;1837453;77;26267;-58
2022/09/25 14:59:31;;;;;;;0.90;0.90;;;;;;;;;;1837424;77;26251;-59
2022/09/25 15:02:01;;;;;;;1.32;1.00;;;;;;;;;;1830384;76;26761;-59
2022/09/25 15:04:31;;;;;;;0.80;0.80;;;;;;;;;;1854897;76;26271;-59
2022/09/25 15:06:59;;;;;;;0.90;0.90;;;;;;;;;;1815320;78;26288;-56
2022/09/25 15:09:31;;;;;;;2.25;1.42;;;;;;;;;;1843830;76;26252;-59
2022/09/25 15:11:59;;;;;;;0.85;0.85;;;;;;;;;;1860350;77;26263;-59
2022/09/25 15:14:26;;;;;;;0.80;0.80;;;;;;;;;;1853439;75;26347;-58
2022/09/25 15:19:40;;;;;;;0.90;0.90;;;;;;;;;;1850893;75;26276;-58
2022/09/25 15:22:18;;;;;;;1.00;1.00;;;;;;;;;;1856746;75;26247;-57